Time;durP1;ratioP1;P1;durP2;ratioP2;P2;SDS_P1;SDS_P2;PMS_P1;PMS_P2;Temp;Humidity;BMP_temperature;BMP_pressure;BME280_temperature;BME280_humidity;BME280_pressure;Samples;Min_cycle;Max_cycle;Signal;HPM_P1;HPM_P2
2021/12/07 00:00:30;;;;;;;84.93;27.58;;;;;;;;;;5068103;28;20467;-61
2021/12/07 00:02:56;;;;;;;96.72;29.30;;;;;;;;;;5065748;28;20195;-61
2021/12/07 00:05:22;;;;;;;59.03;25.13;;;;;;;;;;5047538;28;20028;-62
2021/12/07 00:07:49;;;;;;;80.95;27.35;;;;;;;;;;5043265;28;20152;-61
2021/12/07 00:10:15;;;;;;;74.47;26.65;;;;;;;;;;5061837;28;20396;-61
2021/12/07 00:12:44;;;;;;;79.65;28.52;;;;;;;;;;5068075;28;20123;-61
2021/12/07 00:15:14;;;;;;;90.63;29.55;;;;;;;;;;5053044;28;20523;-61
2021/12/07 00:17:40;;;;;;;86.28;30.13;;;;;;;;;;5059113;28;20041;-61
2021/12/07 00:20:09;;;;;;;74.95;26.85;;;;;;;;;;5070118;28;20124;-61
2021/12/07 00:22:35;;;;;;;88.95;28.52;;;;;;;;;;5071214;28;20082;-60
2021/12/07 00:25:02;;;;;;;90.55;31.58;;;;;;;;;;5053621;28;20052;-61
2021/12/07 00:27:28;;;;;;;83.10;28.27;;;;;;;;;;5060435;28;20032;-61
2021/12/07 00:29:55;;;;;;;77.97;28.60;;;;;;;;;;5053106;28;20129;-61
2021/12/07 00:32:28;;;;;;;83.85;28.08;;;;;;;;;;5059966;28;20111;-61
2021/12/07 00:35:21;;;;;;;74.05;27.05;;;;;;;;;;5065140;28;20053;-60
2021/12/07 00:37:50;;;;;;;61.17;23.20;;;;;;;;;;5032770;28;20096;-61
2021/12/07 00:40:17;;;;;;;67.20;26.52;;;;;;;;;;5038529;28;20128;-61
2021/12/07 00:42:43;;;;;;;76.68;26.33;;;;;;;;;;5036658;28;20088;-61
2021/12/07 00:45:10;;;;;;;61.95;25.33;;;;;;;;;;5032257;28;20049;-61
2021/12/07 00:47:37;;;;;;;68.68;25.50;;;;;;;;;;5037090;28;20497;-61
2021/12/07 00:50:04;;;;;;;71.97;25.73;;;;;;;;;;5033059;28;20396;-61
2021/12/07 00:52:30;;;;;;;69.68;25.95;;;;;;;;;;5049302;28;20078;-61
2021/12/07 00:54:56;;;;;;;72.35;26.55;;;;;;;;;;5036500;28;20128;-61
2021/12/07 00:57:25;;;;;;;68.05;24.27;;;;;;;;;;5032586;28;20061;-61
2021/12/07 00:59:51;;;;;;;64.38;24.02;;;;;;;;;;5036851;28;20116;-61
2021/12/07 01:02:17;;;;;;;68.15;24.15;;;;;;;;;;5049227;28;20086;-61
2021/12/07 01:04:51;;;;;;;65.50;23.55;;;;;;;;;;5042412;28;20041;-61
2021/12/07 01:07:47;;;;;;;63.33;22.52;;;;;;;;;;5041045;28;20377;-61
2021/12/07 01:26:34;;;;;;;66.93;20.85;;;;;;;;;;5044903;28;20505;-61
2021/12/07 01:29:00;;;;;;;54.97;20.30;;;;;;;;;;5015998;28;20045;-61
2021/12/07 01:31:35;;;;;;;59.20;20.65;;;;;;;;;;5032611;28;20445;-61
2021/12/07 01:34:22;;;;;;;60.35;21.33;;;;;;;;;;5037961;28;20053;-61
2021/12/07 01:39:52;;;;;;;52.78;19.63;;;;;;;;;;5059480;28;20044;-61
2021/12/07 01:45:36;;;;;;;49.75;20.33;;;;;;;;;;5058915;28;20116;-61
2021/12/07 01:49:43;;;;;;;47.28;20.58;;;;;;;;;;5054918;28;20045;-61
2021/12/07 02:01:35;;;;;;;60.80;24.45;;;;;;;;;;5062198;28;20043;-61
2021/12/07 02:04:02;;;;;;;55.65;22.30;;;;;;;;;;5070612;28;20049;-61
2021/12/07 02:06:28;;;;;;;63.30;23.77;;;;;;;;;;5068444;28;20043;-61
2021/12/07 02:08:54;;;;;;;63.95;23.92;;;;;;;;;;5051114;28;20084;-61
2021/12/07 02:11:20;;;;;;;55.58;22.48;;;;;;;;;;5051847;28;20048;-61
2021/12/07 02:16:15;;;;;;;70.05;23.70;;;;;;;;;;5067865;28;20086;-61
2021/12/07 02:18:41;;;;;;;69.15;24.50;;;;;;;;;;5070163;28;20048;-61
2021/12/07 02:21:15;;;;;;;63.78;23.35;;;;;;;;;;5062849;28;20044;-61
2021/12/07 02:23:41;;;;;;;;;;;;;;;;;;5049126;28;20057;-61
2021/12/07 02:26:07;;;;;;;55.13;21.17;;;;;;;;;;5056701;28;20303;-60
2021/12/07 02:28:38;;;;;;;61.25;23.38;;;;;;;;;;5057051;28;20080;-61
2021/12/07 02:31:05;;;;;;;65.20;23.42;;;;;;;;;;5054911;28;20049;-61
2021/12/07 02:33:31;;;;;;;61.92;23.75;;;;;;;;;;5062080;28;20041;-61
2021/12/07 02:35:58;;;;;;;77.90;27.48;;;;;;;;;;5065978;28;20058;-61
2021/12/07 02:38:24;;;;;;;76.40;25.42;;;;;;;;;;5068688;28;20392;-61
2021/12/07 02:40:51;;;;;;;60.17;22.90;;;;;;;;;;5073707;28;20484;-61
2021/12/07 02:43:17;;;;;;;64.50;23.63;;;;;;;;;;5066560;28;20040;-61
2021/12/07 02:45:44;;;;;;;70.53;25.02;;;;;;;;;;5063067;28;20119;-61
2021/12/07 02:48:10;;;;;;;55.70;22.38;;;;;;;;;;5070098;28;20109;-61
2021/12/07 02:50:36;;;;;;;67.10;23.08;;;;;;;;;;5073291;28;20076;-61
2021/12/07 02:53:03;;;;;;;69.15;23.58;;;;;;;;;;5074154;28;20075;-61
2021/12/07 02:55:32;;;;;;;63.08;22.70;;;;;;;;;;5074100;28;20048;-61
2021/12/07 02:57:58;;;;;;;67.85;23.08;;;;;;;;;;5055028;28;20060;-61
2021/12/07 03:00:31;;;;;;;66.57;22.15;;;;;;;;;;5056085;28;20040;-61
2021/12/07 03:03:04;;;;;;;59.17;20.65;;;;;;;;;;5074349;28;20044;-61
2021/12/07 03:27:16;;;;;;;74.47;24.48;;;;;;;;;;5072747;28;20449;-61
2021/12/07 03:29:43;;;;;;;86.45;25.85;;;;;;;;;;5074031;28;20036;-61
2021/12/07 03:32:09;;;;;;;71.32;24.23;;;;;;;;;;5073009;28;20036;-61
2021/12/07 03:34:35;;;;;;;66.22;23.30;;;;;;;;;;5055210;28;20036;-62
2021/12/07 03:37:01;;;;;;;68.75;23.42;;;;;;;;;;5072497;28;20553;-61
2021/12/07 03:39:28;;;;;;;66.80;23.35;;;;;;;;;;5068636;28;20098;-61
2021/12/07 03:41:54;;;;;;;63.90;22.13;;;;;;;;;;5073094;28;20501;-61
2021/12/07 03:44:20;;;;;;;68.60;21.92;;;;;;;;;;5073592;28;20116;-61
2021/12/07 03:46:46;;;;;;;67.97;22.30;;;;;;;;;;5072814;28;20041;-61
2021/12/07 03:49:13;;;;;;;60.67;19.77;;;;;;;;;;5066207;28;20047;-61
2021/12/07 03:51:39;;;;;;;58.38;19.73;;;;;;;;;;5060276;28;20083;-61
2021/12/07 03:54:06;;;;;;;66.80;21.83;;;;;;;;;;5060350;28;20036;-61
2021/12/07 03:56:33;;;;;;;67.65;22.15;;;;;;;;;;5062235;28;20066;-61
2021/12/07 03:58:59;;;;;;;83.65;22.75;;;;;;;;;;5066598;28;20472;-61
2021/12/07 04:01:25;;;;;;;67.85;22.02;;;;;;;;;;5072301;28;20047;-61
2021/12/07 04:03:52;;;;;;;79.07;22.42;;;;;;;;;;5073097;28;20039;-61
2021/12/07 04:06:19;;;;;;;74.07;23.58;;;;;;;;;;5073256;28;20051;-61
2021/12/07 04:08:46;;;;;;;78.63;22.55;;;;;;;;;;5072244;28;20501;-61
2021/12/07 04:11:13;;;;;;;87.28;23.30;;;;;;;;;;5072707;28;20134;-61
2021/12/07 04:13:40;;;;;;;101.85;24.55;;;;;;;;;;5054650;28;20044;-61
2021/12/07 04:16:08;;;;;;;91.32;23.42;;;;;;;;;;5071977;28;20045;-61
2021/12/07 04:18:34;;;;;;;83.07;23.90;;;;;;;;;;5072696;28;20086;-61
2021/12/07 04:21:02;;;;;;;104.28;25.23;;;;;;;;;;5073082;28;20036;-61
2021/12/07 04:23:29;;;;;;;70.63;20.65;;;;;;;;;;5071714;28;20076;-61
2021/12/07 04:25:55;;;;;;;83.95;21.70;;;;;;;;;;5072528;28;20037;-61
2021/12/07 04:28:21;;;;;;;72.03;21.00;;;;;;;;;;5072823;28;20138;-61
2021/12/07 04:30:47;;;;;;;72.47;21.63;;;;;;;;;;5053957;28;20055;-61
2021/12/07 04:33:15;;;;;;;73.05;20.60;;;;;;;;;;5072358;28;20052;-61
2021/12/07 04:35:43;;;;;;;68.55;18.85;;;;;;;;;;5071355;28;20051;-61
2021/12/07 04:38:09;;;;;;;41.30;15.95;;;;;;;;;;5072381;28;20056;-61
2021/12/07 04:40:36;;;;;;;61.05;19.02;;;;;;;;;;5072046;28;20396;-61
2021/12/07 04:43:03;;;;;;;61.97;18.98;;;;;;;;;;5071551;28;20358;-61
2021/12/07 04:45:47;;;;;;;58.47;18.80;;;;;;;;;;5072348;28;20055;-61
2021/12/07 04:58:58;;;;;;;34.33;12.27;;;;;;;;;;5065592;28;20045;-61
2021/12/07 05:01:25;;;;;;;33.20;12.88;;;;;;;;;;5051486;28;20037;-61
2021/12/07 05:03:55;;;;;;;43.50;13.45;;;;;;;;;;5071254;28;20514;-61
2021/12/07 05:06:28;;;;;;;39.20;11.77;;;;;;;;;;5068290;28;20040;-61
2021/12/07 05:09:00;;;;;;;31.65;10.57;;;;;;;;;;5071113;28;20052;-61
2021/12/07 05:11:43;;;;;;;33.53;12.75;;;;;;;;;;5070435;28;20480;-61
2021/12/07 05:14:19;;;;;;;29.43;10.53;;;;;;;;;;5071656;28;20055;-61
2021/12/07 05:17:02;;;;;;;31.48;10.02;;;;;;;;;;5071522;28;20067;-61
2021/12/07 05:38:29;;;;;;;33.72;8.07;;;;;;;;;;5067222;28;20051;-61
2021/12/07 05:40:55;;;;;;;46.42;9.38;;;;;;;;;;5048061;28;20032;-61
2021/12/07 05:43:22;;;;;;;37.35;7.88;;;;;;;;;;5070487;28;20040;-61
2021/12/07 05:45:48;;;;;;;26.27;7.20;;;;;;;;;;5051870;28;20048;-61
2021/12/07 05:48:14;;;;;;;22.45;6.57;;;;;;;;;;5070747;28;20083;-61
2021/12/07 05:50:41;;;;;;;33.22;8.93;;;;;;;;;;5059788;28;20091;-62
2021/12/07 05:53:09;;;;;;;24.55;5.15;;;;;;;;;;5060053;28;20471;-62
2021/12/07 05:55:37;;;;;;;20.65;6.15;;;;;;;;;;5050236;28;20091;-60
2021/12/07 05:58:07;;;;;;;21.70;4.97;;;;;;;;;;5045689;28;20056;-68
2021/12/07 06:00:34;;;;;;;24.88;5.07;;;;;;;;;;5060886;28;20037;-62
2021/12/07 06:03:02;;;;;;;19.92;5.28;;;;;;;;;;5063709;28;20097;-62
2021/12/07 06:05:29;;;;;;;21.05;4.32;;;;;;;;;;5062493;28;20410;-62
2021/12/07 06:07:56;;;;;;;16.13;3.90;;;;;;;;;;5064980;28;20040;-62
2021/12/07 06:10:22;;;;;;;40.75;5.32;;;;;;;;;;5064514;28;20396;-62
2021/12/07 06:12:49;;;;;;;26.38;5.78;;;;;;;;;;5068375;28;20191;-62
2021/12/07 06:15:18;;;;;;;20.83;4.80;;;;;;;;;;5066252;28;20040;-62
2021/12/07 06:17:45;;;;;;;13.05;4.25;;;;;;;;;;5067619;28;20551;-62
2021/12/07 06:20:11;;;;;;;17.75;4.90;;;;;;;;;;5065407;28;20033;-62
2021/12/07 06:22:37;;;;;;;17.70;4.28;;;;;;;;;;5066740;28;20044;-62
2021/12/07 06:25:04;;;;;;;28.10;3.95;;;;;;;;;;5066494;28;20037;-62
2021/12/07 06:27:31;;;;;;;34.95;5.10;;;;;;;;;;5066418;28;20135;-61
2021/12/07 06:29:57;;;;;;;20.88;3.53;;;;;;;;;;5065570;28;20051;-62
2021/12/07 06:32:24;;;;;;;17.05;3.47;;;;;;;;;;5066700;28;20550;-62
2021/12/07 06:34:50;;;;;;;19.27;3.47;;;;;;;;;;5068615;28;20048;-61
2021/12/07 06:37:17;;;;;;;21.40;3.70;;;;;;;;;;5065273;28;20068;-63
2021/12/07 06:39:43;;;;;;;697.92;58.35;;;;;;;;;;5037760;28;20123;-62
2021/12/07 06:42:09;;;;;;;17.58;3.60;;;;;;;;;;5050712;28;20546;-61
2021/12/07 06:44:36;;;;;;;21.52;4.40;;;;;;;;;;5033759;28;20044;-62
2021/12/07 06:47:03;;;;;;;19.90;4.07;;;;;;;;;;5058320;28;20110;-61
2021/12/07 06:49:29;;;;;;;23.95;4.28;;;;;;;;;;5068870;28;20043;-61
2021/12/07 06:51:55;;;;;;;16.10;4.20;;;;;;;;;;5053240;28;20485;-61
2021/12/07 06:54:21;;;;;;;17.67;3.30;;;;;;;;;;5037576;28;20053;-61
2021/12/07 06:56:48;;;;;;;22.42;3.67;;;;;;;;;;5068917;28;20041;-61
2021/12/07 06:59:14;;;;;;;26.63;5.00;;;;;;;;;;5069717;28;20041;-61
2021/12/07 07:01:40;;;;;;;27.08;4.20;;;;;;;;;;5049311;28;20472;-65
2021/12/07 07:04:08;;;;;;;28.00;5.82;;;;;;;;;;5068736;28;20068;-64
2021/12/07 07:06:34;;;;;;;20.27;5.05;;;;;;;;;;5051574;28;20507;-64
2021/12/07 07:09:00;;;;;;;20.75;4.00;;;;;;;;;;5051432;28;20037;-64
2021/12/07 07:11:27;;;;;;;18.63;3.95;;;;;;;;;;5050759;28;20120;-64
2021/12/07 07:13:54;;;;;;;15.40;3.72;;;;;;;;;;5038112;28;20061;-64
2021/12/07 07:16:21;;;;;;;20.83;3.95;;;;;;;;;;5054691;28;20052;-64
2021/12/07 07:18:47;;;;;;;17.92;4.38;;;;;;;;;;5053860;28;20048;-64
2021/12/07 07:21:13;;;;;;;18.25;4.13;;;;;;;;;;5065641;28;20500;-62
2021/12/07 07:23:39;;;;;;;22.27;4.53;;;;;;;;;;5073370;28;20464;-61
2021/12/07 07:26:06;;;;;;;23.33;4.25;;;;;;;;;;5072095;28;20040;-61
2021/12/07 07:28:33;;;;;;;22.73;4.47;;;;;;;;;;5060536;28;20109;-61
2021/12/07 07:31:00;;;;;;;20.50;4.63;;;;;;;;;;5074691;28;20172;-61
2021/12/07 07:33:26;;;;;;;22.63;5.25;;;;;;;;;;5073618;28;20044;-61
2021/12/07 07:35:53;;;;;;;19.38;4.40;;;;;;;;;;5074434;28;20071;-61
2021/12/07 07:38:19;;;;;;;14.05;4.63;;;;;;;;;;5073621;28;20053;-61
2021/12/07 07:40:46;;;;;;;24.30;6.05;;;;;;;;;;5074468;28;20041;-61
2021/12/07 07:43:16;;;;;;;26.02;4.53;;;;;;;;;;5074341;28;20053;-61
2021/12/07 07:45:43;;;;;;;16.63;5.57;;;;;;;;;;5073468;28;20040;-61
2021/12/07 07:48:09;;;;;;;29.33;5.40;;;;;;;;;;5074173;28;20119;-66
2021/12/07 07:50:35;;;;;;;20.15;4.28;;;;;;;;;;5056407;28;20049;-66
2021/12/07 07:53:02;;;;;;;19.48;3.53;;;;;;;;;;5054798;28;20051;-66
2021/12/07 07:55:28;;;;;;;18.45;4.55;;;;;;;;;;5074073;28;20052;-65
2021/12/07 07:57:54;;;;;;;41.45;7.28;;;;;;;;;;5074106;28;20151;-65
2021/12/07 08:00:21;;;;;;;29.83;5.68;;;;;;;;;;5054790;28;20036;-61
2021/12/07 08:02:48;;;;;;;37.65;6.68;;;;;;;;;;5073339;28;20118;-63
2021/12/07 08:05:15;;;;;;;29.83;5.03;;;;;;;;;;5073196;28;20109;-62
2021/12/07 08:07:46;;;;;;;20.73;4.53;;;;;;;;;;5072473;28;20116;-62
2021/12/07 08:10:13;;;;;;;24.48;4.47;;;;;;;;;;5069592;28;20043;-63
2021/12/07 08:12:39;;;;;;;24.77;5.13;;;;;;;;;;5072993;28;20041;-62
2021/12/07 08:15:06;;;;;;;24.10;4.60;;;;;;;;;;5072137;28;20044;-62
2021/12/07 08:17:32;;;;;;;23.63;4.68;;;;;;;;;;5072738;28;20140;-62
2021/12/07 08:19:58;;;;;;;21.55;5.80;;;;;;;;;;5073145;28;20040;-62
2021/12/07 08:22:25;;;;;;;26.10;4.97;;;;;;;;;;5071791;28;20102;-62
2021/12/07 08:24:51;;;;;;;23.50;4.80;;;;;;;;;;5072720;28;20442;-62
2021/12/07 08:27:17;;;;;;;28.83;4.47;;;;;;;;;;5054213;28;20037;-62
2021/12/07 08:29:43;;;;;;;20.80;4.22;;;;;;;;;;5071868;28;20132;-62
2021/12/07 08:32:10;;;;;;;19.45;4.93;;;;;;;;;;5072720;28;20124;-61
2021/12/07 08:34:36;;;;;;;19.73;4.60;;;;;;;;;;5071795;28;20037;-62
2021/12/07 08:37:02;;;;;;;26.92;4.50;;;;;;;;;;5072570;28;20114;-62
2021/12/07 08:39:28;;;;;;;23.20;4.05;;;;;;;;;;5072618;28;20037;-62
2021/12/07 08:41:54;;;;;;;20.98;5.10;;;;;;;;;;5071543;28;20160;-62
2021/12/07 08:44:21;;;;;;;19.83;4.50;;;;;;;;;;5072284;28;20041;-61
2021/12/07 08:46:47;;;;;;;22.42;4.75;;;;;;;;;;5072500;28;20043;-62
2021/12/07 08:49:15;;;;;;;22.35;5.25;;;;;;;;;;5071671;28;20395;-61
2021/12/07 08:51:42;;;;;;;22.55;5.30;;;;;;;;;;5072532;28;20066;-62
2021/12/07 08:54:25;;;;;;;19.95;5.20;;;;;;;;;;5054402;28;20325;-61
2021/12/07 08:59:40;;;;;;;24.55;5.25;;;;;;;;;;5072238;28;20048;-61
2021/12/07 09:02:06;;;;;;;33.90;6.05;;;;;;;;;;5069805;28;20044;-61
2021/12/07 09:04:32;;;;;;;27.50;6.00;;;;;;;;;;5071444;28;20043;-62
2021/12/07 09:06:59;;;;;;;40.25;7.57;;;;;;;;;;5072754;28;20080;-61
2021/12/07 09:09:25;;;;;;;34.88;8.13;;;;;;;;;;5055547;28;20036;-61
2021/12/07 09:11:53;;;;;;;26.95;6.22;;;;;;;;;;5072061;28;20045;-61
2021/12/07 09:14:20;;;;;;;36.95;6.35;;;;;;;;;;5072494;28;20492;-61
2021/12/07 09:16:46;;;;;;;34.95;7.82;;;;;;;;;;5072028;28;20085;-61
2021/12/07 09:19:13;;;;;;;39.20;8.65;;;;;;;;;;5072459;28;20056;-62
2021/12/07 09:21:40;;;;;;;33.95;7.07;;;;;;;;;;5072419;28;20064;-61
2021/12/07 09:24:06;;;;;;;31.40;6.88;;;;;;;;;;5071347;28;20082;-61
2021/12/07 09:26:33;;;;;;;28.58;7.80;;;;;;;;;;5072557;28;20082;-62
2021/12/07 09:28:59;;;;;;;35.10;8.68;;;;;;;;;;5072649;28;20051;-61
2021/12/07 09:31:26;;;;;;;31.50;8.27;;;;;;;;;;5071627;28;20120;-61
2021/12/07 09:33:54;;;;;;;24.98;7.38;;;;;;;;;;5071779;28;20496;-61
2021/12/07 09:36:20;;;;;;;33.53;8.77;;;;;;;;;;5071477;28;20076;-62
2021/12/07 09:38:47;;;;;;;37.75;9.65;;;;;;;;;;5071599;28;20049;-62
2021/12/07 09:41:14;;;;;;;24.58;8.15;;;;;;;;;;5072255;28;20044;-62
2021/12/07 09:43:42;;;;;;;27.45;8.48;;;;;;;;;;5072282;28;20077;-62
2021/12/07 09:46:09;;;;;;;30.52;7.97;;;;;;;;;;5071607;28;20415;-62
2021/12/07 09:48:36;;;;;;;34.60;8.63;;;;;;;;;;5072131;28;20041;-62
2021/12/07 09:51:03;;;;;;;31.10;8.23;;;;;;;;;;5054262;28;20048;-61
2021/12/07 09:53:30;;;;;;;35.05;9.45;;;;;;;;;;5071278;28;20080;-61
2021/12/07 09:55:57;;;;;;;29.25;8.57;;;;;;;;;;5072065;28;20040;-67
2021/12/07 09:58:24;;;;;;;28.30;8.98;;;;;;;;;;5072039;28;20048;-62
2021/12/07 10:00:50;;;;;;;25.25;8.15;;;;;;;;;;5053450;28;20052;-62
2021/12/07 10:03:18;;;;;;;36.55;9.00;;;;;;;;;;5071894;28;20044;-66
2021/12/07 10:05:44;;;;;;;21.05;8.70;;;;;;;;;;5071897;28;20093;-72
2021/12/07 10:08:11;;;;;;;25.80;8.30;;;;;;;;;;5071254;28;20048;-62
2021/12/07 10:10:43;;;;;;;26.38;7.88;;;;;;;;;;5072060;28;20157;-62
2021/12/07 10:13:09;;;;;;;18.08;8.77;;;;;;;;;;5064111;28;20048;-61
2021/12/07 10:15:36;;;;;;;23.85;7.75;;;;;;;;;;5058569;28;20040;-62
2021/12/07 10:18:06;;;;;;;27.48;7.78;;;;;;;;;;5059632;28;20072;-61
2021/12/07 10:20:39;;;;;;;20.75;7.88;;;;;;;;;;5052260;28;20041;-66
2021/12/07 10:23:21;;;;;;;26.97;7.30;;;;;;;;;;5064614;28;20551;-61
2021/12/07 10:25:51;;;;;;;22.30;8.43;;;;;;;;;;5049284;28;20839;-61
2021/12/07 10:28:29;;;;;;;19.55;6.55;;;;;;;;;;5069314;28;20483;-61
2021/12/07 10:30:57;;;;;;;27.42;6.38;;;;;;;;;;5052766;28;20128;-61
2021/12/07 10:33:31;;;;;;;23.45;5.75;;;;;;;;;;5065299;28;20037;-61
2021/12/07 10:36:09;;;;;;;18.23;5.43;;;;;;;;;;5050561;28;20485;-61
2021/12/07 10:38:37;;;;;;;18.13;5.07;;;;;;;;;;5051566;28;20059;-61
2021/12/07 10:41:05;;;;;;;18.50;4.88;;;;;;;;;;5065992;28;20040;-63
2021/12/07 10:43:42;;;;;;;21.13;6.07;;;;;;;;;;5049486;28;20051;-61
2021/12/07 10:46:33;;;;;;;18.77;4.53;;;;;;;;;;5054101;28;20040;-61
2021/12/07 10:49:15;;;;;;;14.45;4.13;;;;;;;;;;5054831;28;20060;-61
2021/12/07 10:51:42;;;;;;;20.98;6.78;;;;;;;;;;5039697;28;20053;-61
2021/12/07 10:54:08;;;;;;;16.10;4.93;;;;;;;;;;5055309;28;20044;-61
2021/12/07 10:56:36;;;;;;;15.10;4.45;;;;;;;;;;5054563;28;20127;-61
2021/12/07 10:59:05;;;;;;;18.10;5.35;;;;;;;;;;5055180;28;20037;-61
2021/12/07 11:01:33;;;;;;;25.95;5.13;;;;;;;;;;5046833;28;20040;-61
2021/12/07 11:04:18;;;;;;;20.58;4.53;;;;;;;;;;5073018;28;20094;-61
2021/12/07 11:07:02;;;;;;;20.85;5.20;;;;;;;;;;5073786;28;20040;-61
2021/12/07 11:09:29;;;;;;;22.70;3.75;;;;;;;;;;5072787;28;20219;-61
2021/12/07 11:12:08;;;;;;;25.95;5.07;;;;;;;;;;5069078;28;20120;-61
2021/12/07 11:14:48;;;;;;;24.10;5.30;;;;;;;;;;5073554;28;20474;-61
2021/12/07 11:17:15;;;;;;;15.45;3.70;;;;;;;;;;5072267;28;20135;-61
2021/12/07 11:19:41;;;;;;;17.48;4.53;;;;;;;;;;5057903;28;20091;-63
2021/12/07 11:22:08;;;;;;;21.23;3.75;;;;;;;;;;5060762;28;20069;-60
2021/12/07 11:24:35;;;;;;;14.32;4.10;;;;;;;;;;5063692;28;20037;-61
2021/12/07 11:30:02;;;;;;;20.63;4.93;;;;;;;;;;5073904;28;20117;-62
2021/12/07 11:32:29;;;;;;;23.02;5.05;;;;;;;;;;5073751;28;20437;-62
2021/12/07 11:35:06;;;;;;;19.77;4.15;;;;;;;;;;5074524;28;20056;-62
2021/12/07 11:37:37;;;;;;;19.65;4.43;;;;;;;;;;5072693;28;20102;-62
2021/12/07 11:40:03;;;;;;;22.33;4.65;;;;;;;;;;5066550;28;20047;-62
2021/12/07 11:42:34;;;;;;;23.05;4.88;;;;;;;;;;5071306;28;20040;-62
2021/12/07 11:45:03;;;;;;;16.77;3.35;;;;;;;;;;5067664;28;20048;-62
2021/12/07 11:47:39;;;;;;;14.75;3.03;;;;;;;;;;5068174;28;20115;-62
2021/12/07 11:50:12;;;;;;;18.75;4.57;;;;;;;;;;5069842;28;20131;-61
2021/12/07 11:52:39;;;;;;;15.60;3.63;;;;;;;;;;5050062;28;20037;-61
2021/12/07 11:55:06;;;;;;;21.08;3.70;;;;;;;;;;5070103;28;20412;-62
2021/12/07 11:57:32;;;;;;;12.32;4.03;;;;;;;;;;5061065;28;20120;-61
2021/12/07 11:59:58;;;;;;;24.02;5.43;;;;;;;;;;5061348;28;20053;-62
2021/12/07 12:02:25;;;;;;;19.50;4.57;;;;;;;;;;5064380;28;20063;-61
2021/12/07 12:04:51;;;;;;;19.23;3.50;;;;;;;;;;5067923;28;20032;-62
2021/12/07 12:07:19;;;;;;;12.63;4.10;;;;;;;;;;5072386;28;20056;-62
2021/12/07 12:09:49;;;;;;;18.90;3.63;;;;;;;;;;5073211;28;20051;-65
2021/12/07 12:12:17;;;;;;;14.50;4.18;;;;;;;;;;5053182;28;20123;-64
2021/12/07 12:14:54;;;;;;;21.90;3.55;;;;;;;;;;5054174;28;20507;-64
2021/12/07 12:17:27;;;;;;;29.48;5.10;;;;;;;;;;5073050;28;20131;-64
2021/12/07 12:20:03;;;;;;;14.77;3.60;;;;;;;;;;5064066;28;20048;-66
2021/12/07 12:22:36;;;;;;;15.85;2.90;;;;;;;;;;5044971;28;20377;-66
2021/12/07 12:25:06;;;;;;;17.00;3.83;;;;;;;;;;5044704;28;20553;-65
2021/12/07 12:27:34;;;;;;;22.70;4.22;;;;;;;;;;5042578;28;20067;-65
2021/12/07 12:30:01;;;;;;;21.10;4.38;;;;;;;;;;5061624;28;20036;-65
2021/12/07 12:32:30;;;;;;;23.30;6.63;;;;;;;;;;5062504;28;20076;-65
2021/12/07 12:34:57;;;;;;;19.40;4.32;;;;;;;;;;5063219;28;20041;-62
2021/12/07 12:37:25;;;;;;;18.77;3.97;;;;;;;;;;5065988;28;20045;-65
2021/12/07 12:39:53;;;;;;;13.10;4.32;;;;;;;;;;5062869;28;20048;-65
2021/12/07 12:42:30;;;;;;;19.08;4.32;;;;;;;;;;5062645;28;20197;-65
2021/12/07 12:44:59;;;;;;;17.58;4.18;;;;;;;;;;5047264;28;20056;-65
2021/12/07 12:47:27;;;;;;;19.65;4.35;;;;;;;;;;5062525;28;20043;-66
2021/12/07 12:49:53;;;;;;;14.07;4.80;;;;;;;;;;5062710;28;20058;-65
2021/12/07 12:52:36;;;;;;;16.73;4.57;;;;;;;;;;5058657;28;20392;-64
2021/12/07 12:55:04;;;;;;;18.70;5.53;;;;;;;;;;5060216;28;20395;-62
2021/12/07 12:57:31;;;;;;;10.35;3.85;;;;;;;;;;5063193;28;20087;-62
2021/12/07 12:59:57;;;;;;;14.63;3.88;;;;;;;;;;5064826;28;20086;-62
2021/12/07 13:02:28;;;;;;;17.02;5.30;;;;;;;;;;5045399;28;20055;-62
2021/12/07 13:05:05;;;;;;;22.10;4.65;;;;;;;;;;5048152;28;20139;-62
2021/12/07 13:07:31;;;;;;;16.85;4.30;;;;;;;;;;5061734;28;20045;-62
2021/12/07 13:10:00;;;;;;;18.45;4.38;;;;;;;;;;5066597;28;20040;-61
2021/12/07 13:12:27;;;;;;;14.57;4.97;;;;;;;;;;5068940;28;20080;-61
2021/12/07 13:14:54;;;;;;;18.33;4.32;;;;;;;;;;5047385;28;20106;-61
2021/12/07 13:17:20;;;;;;;15.52;4.38;;;;;;;;;;5071850;28;20422;-62
2021/12/07 13:20:04;;;;;;;13.68;4.65;;;;;;;;;;5072665;28;20131;-62
2021/12/07 13:22:38;;;;;;;18.20;4.22;;;;;;;;;;5072766;28;20040;-62
2021/12/07 13:25:06;;;;;;;21.27;4.53;;;;;;;;;;5071638;28;20080;-60
2021/12/07 13:27:32;;;;;;;24.33;4.75;;;;;;;;;;5072296;28;20123;-60
2021/12/07 13:29:58;;;;;;;21.55;5.78;;;;;;;;;;5072040;28;20098;-60
2021/12/07 13:32:25;;;;;;;10.85;3.58;;;;;;;;;;5072479;28;20131;-60
2021/12/07 13:35:02;;;;;;;17.50;4.65;;;;;;;;;;5072113;28;20059;-60
2021/12/07 13:37:44;;;;;;;15.25;4.57;;;;;;;;;;5053334;28;20068;-60
2021/12/07 13:40:19;;;;;;;12.35;4.47;;;;;;;;;;5071380;28;20049;-60
2021/12/07 13:42:45;;;;;;;;;;;;;;;;;;5055795;28;20483;-60
2021/12/07 13:45:12;;;;;;;16.15;4.22;;;;;;;;;;5047924;28;19931;-60
2021/12/07 13:47:42;;;;;;;16.88;4.10;;;;;;;;;;5064663;28;20488;-60
2021/12/07 13:50:10;;;;;;;13.75;4.38;;;;;;;;;;5051899;28;20068;-60
2021/12/07 13:52:38;;;;;;;21.40;4.75;;;;;;;;;;5033170;28;20091;-59
2021/12/07 13:55:06;;;;;;;19.25;4.72;;;;;;;;;;5065695;28;20403;-60
2021/12/07 13:57:35;;;;;;;20.75;4.63;;;;;;;;;;5070467;28;20117;-59
2021/12/07 14:00:08;;;;;;;16.05;4.38;;;;;;;;;;5068008;28;20048;-60
2021/12/07 14:02:35;;;;;;;20.20;4.47;;;;;;;;;;5052551;28;20044;-60
2021/12/07 14:05:03;;;;;;;21.15;4.72;;;;;;;;;;5051904;28;20044;-60
2021/12/07 14:07:31;;;;;;;20.58;3.90;;;;;;;;;;5056112;28;20072;-60
2021/12/07 14:10:03;;;;;;;15.82;4.90;;;;;;;;;;5070808;28;20451;-60
2021/12/07 14:12:29;;;;;;;24.10;5.18;;;;;;;;;;5069496;28;20725;-60
2021/12/07 14:15:04;;;;;;;18.48;4.82;;;;;;;;;;5060433;28;20037;-60
2021/12/07 14:17:38;;;;;;;23.65;4.97;;;;;;;;;;5051528;28;20044;-60
2021/12/07 14:20:04;;;;;;;;;;;;;;;;;;5033344;28;20427;-60
2021/12/07 14:22:31;;;;;;;26.05;5.40;;;;;;;;;;5072388;28;19967;-60
2021/12/07 14:24:57;;;;;;;17.77;5.60;;;;;;;;;;5074213;28;20040;-60
2021/12/07 14:27:23;;;;;;;17.83;4.35;;;;;;;;;;5070912;28;20103;-60
2021/12/07 14:29:50;;;;;;;13.93;4.70;;;;;;;;;;5037596;28;20044;-60
2021/12/07 14:32:16;;;;;;;18.63;4.45;;;;;;;;;;5037669;28;20068;-60
2021/12/07 14:34:45;;;;;;;25.13;4.88;;;;;;;;;;5044051;28;20554;-60
2021/12/07 14:37:12;;;;;;;13.77;4.85;;;;;;;;;;5074134;28;20152;-63
2021/12/07 14:39:41;;;;;;;23.00;6.07;;;;;;;;;;5073784;28;20032;-63
2021/12/07 14:42:09;;;;;;;12.60;3.83;;;;;;;;;;5060508;28;20045;-60
2021/12/07 14:44:36;;;;;;;13.70;4.07;;;;;;;;;;5055203;28;20037;-60
2021/12/07 14:47:05;;;;;;;15.07;5.43;;;;;;;;;;5055430;28;20036;-72
2021/12/07 14:49:33;;;;;;;26.25;6.47;;;;;;;;;;5063353;28;20455;-60
2021/12/07 14:51:59;;;;;;;16.50;5.80;;;;;;;;;;5068586;28;20130;-60
2021/12/07 14:54:25;;;;;;;22.65;5.25;;;;;;;;;;5064781;28;20045;-60
2021/12/07 14:56:53;;;;;;;20.17;6.30;;;;;;;;;;5066043;28;20390;-60
2021/12/07 14:59:20;;;;;;;14.95;5.22;;;;;;;;;;5067186;28;20040;-60
2021/12/07 15:01:51;;;;;;;16.85;5.70;;;;;;;;;;5068584;28;20110;-60
2021/12/07 15:04:18;;;;;;;21.20;5.93;;;;;;;;;;5066793;28;20072;-59
2021/12/07 15:06:48;;;;;;;18.52;5.18;;;;;;;;;;5050569;28;20056;-59
2021/12/07 15:09:15;;;;;;;20.58;6.30;;;;;;;;;;5068365;28;20056;-60
2021/12/07 15:11:43;;;;;;;22.75;6.57;;;;;;;;;;5060586;28;20045;-59
2021/12/07 15:14:11;;;;;;;20.08;6.32;;;;;;;;;;5046989;28;20048;-60
2021/12/07 15:16:38;;;;;;;21.65;5.45;;;;;;;;;;5066277;28;20044;-59
2021/12/07 15:19:04;;;;;;;19.40;6.47;;;;;;;;;;5065849;28;20033;-62
2021/12/07 15:21:32;;;;;;;21.70;7.00;;;;;;;;;;5070490;28;20049;-59
2021/12/07 15:24:03;;;;;;;15.93;6.15;;;;;;;;;;5066874;28;20045;-62
2021/12/07 15:26:30;;;;;;;19.30;7.57;;;;;;;;;;5047333;28;20079;-61
2021/12/07 15:28:58;;;;;;;19.13;7.15;;;;;;;;;;5047167;28;20048;-59
2021/12/07 15:31:25;;;;;;;27.35;8.93;;;;;;;;;;5066115;28;20491;-59
2021/12/07 15:33:52;;;;;;;23.98;8.57;;;;;;;;;;5066386;28;20048;-60
2021/12/07 15:36:20;;;;;;;22.95;8.60;;;;;;;;;;5068255;28;20044;-59
2021/12/07 15:38:46;;;;;;;35.10;10.43;;;;;;;;;;5027251;28;20052;-59
2021/12/07 15:41:12;;;;;;;26.02;11.32;;;;;;;;;;5064653;28;20472;-59
2021/12/07 15:43:44;;;;;;;29.60;11.00;;;;;;;;;;5070436;28;20131;-59
2021/12/07 15:46:15;;;;;;;26.80;11.07;;;;;;;;;;5066474;28;20037;-59
2021/12/07 15:48:43;;;;;;;31.33;11.27;;;;;;;;;;5051094;28;20045;-59
2021/12/07 15:51:09;;;;;;;27.50;10.93;;;;;;;;;;5064403;28;20123;-59
2021/12/07 15:53:36;;;;;;;27.10;11.18;;;;;;;;;;5042720;28;20076;-59
2021/12/07 15:56:03;;;;;;;36.45;12.95;;;;;;;;;;5058935;28;20071;-59
2021/12/07 15:58:29;;;;;;;27.38;12.75;;;;;;;;;;5058355;28;20127;-59
2021/12/07 16:00:57;;;;;;;29.02;13.32;;;;;;;;;;5066215;28;20484;-59
2021/12/07 16:03:25;;;;;;;36.72;13.02;;;;;;;;;;5064990;28;20474;-59
2021/12/07 16:05:54;;;;;;;25.50;11.98;;;;;;;;;;5062818;28;20403;-59